createdAt,value
2023-01-25T00:02:01.234Z,100076.50
2023-01-25T00:04:28.401Z,100072.09
2023-01-25T00:06:55.253Z,100074.03
2023-01-25T00:09:24.442Z,100072.22
2023-01-25T00:11:51.442Z,100067.94
2023-01-25T00:14:18.040Z,100077.59
2023-01-25T00:16:44.825Z,100059.41
2023-01-25T00:19:12.000Z,100067.13
2023-01-25T00:21:39.100Z,100065.47
2023-01-25T00:24:11.860Z,100076.88
2023-01-25T00:26:44.068Z,100074.38
2023-01-25T00:29:14.151Z,100076.88
2023-01-25T00:31:45.079Z,100077.84
2023-01-25T00:34:29.834Z,100066.53
2023-01-25T00:37:12.979Z,100071.91
2023-01-25T00:39:39.745Z,100079.75
2023-01-25T00:42:10.843Z,100070.25
2023-01-25T00:44:38.681Z,100070.09
2023-01-25T00:47:05.493Z,100075.22
2023-01-25T00:49:33.532Z,100082.22
2023-01-25T00:52:00.476Z,100065.88
2023-01-25T00:54:27.178Z,100069.03
2023-01-25T00:56:56.320Z,100062.03
2023-01-25T00:59:24.540Z,100057.75
2023-01-25T01:01:52.313Z,100054.56
2023-01-25T01:04:19.903Z,100049.19
2023-01-25T01:06:46.883Z,100052.06
2023-01-25T01:09:15.761Z,100054.56
2023-01-25T01:11:43.018Z,100051.81
2023-01-25T01:14:10.117Z,100049.19
2023-01-25T01:16:36.798Z,100051.59
2023-01-25T01:19:03.936Z,100058.56
2023-01-25T01:21:30.560Z,100052.66
2023-01-25T01:23:57.351Z,100054.31
2023-01-25T01:26:24.685Z,100043.97
2023-01-25T01:28:51.208Z,100052.66
2023-01-25T01:31:21.633Z,100054.44
2023-01-25T01:33:51.258Z,100051.00
2023-01-25T01:36:20.148Z,100055.41
2023-01-25T01:38:47.017Z,100055.53
2023-01-25T01:41:15.251Z,100054.69
2023-01-25T01:43:42.987Z,100056.50
2023-01-25T01:46:13.854Z,100057.31
2023-01-25T01:48:44.020Z,100056.63
2023-01-25T01:51:24.753Z,100055.66
2023-01-25T01:53:58.115Z,100060.88
2023-01-25T01:56:32.274Z,100058.56
2023-01-25T01:59:00.245Z,100053.59
2023-01-25T02:01:27.645Z,100052.78
2023-01-25T02:03:55.392Z,100054.69
2023-01-25T02:06:31.476Z,100055.78
2023-01-25T02:08:58.658Z,100058.53
2023-01-25T02:11:27.355Z,100056.03
2023-01-25T02:13:56.040Z,100049.16
2023-01-25T02:16:25.768Z,100057.13
2023-01-25T02:18:54.120Z,100053.69
2023-01-25T02:21:23.409Z,100044.19
2023-01-25T02:24:07.145Z,100052.03
2023-01-25T02:26:36.402Z,100040.63
2023-01-25T02:29:06.164Z,100037.16
2023-01-25T02:31:33.127Z,100043.09
2023-01-25T02:33:59.857Z,100046.53
2023-01-25T02:36:30.946Z,100048.34
2023-01-25T02:39:03.923Z,100037.03
2023-01-25T02:41:32.562Z,100039.78
2023-01-25T02:44:00.655Z,100035.41
2023-01-25T02:46:31.707Z,100038.00
2023-01-25T02:49:00.033Z,100032.66
2023-01-25T02:51:28.436Z,100031.81
2023-01-25T02:53:55.977Z,100037.16
2023-01-25T02:56:23.218Z,100029.47
2023-01-25T02:58:50.031Z,100034.69
2023-01-25T03:01:17.625Z,100033.72
2023-01-25T03:03:44.271Z,100033.88
2023-01-25T03:06:11.162Z,100030.41
2023-01-25T03:08:37.898Z,100031.25
2023-01-25T03:11:06.687Z,100036.34
2023-01-25T03:13:34.420Z,100030.28
2023-01-25T03:16:04.027Z,100031.34
2023-01-25T03:18:30.952Z,100029.47
2023-01-25T03:21:03.768Z,100027.66
2023-01-25T03:23:30.304Z,100026.25
2023-01-25T03:26:06.096Z,100027.94
2023-01-25T03:28:32.723Z,100024.50
2023-01-25T03:30:59.407Z,100016.75
2023-01-25T03:33:26.030Z,100015.13
2023-01-25T03:35:53.809Z,100018.69
2023-01-25T03:38:20.807Z,100016.06
2023-01-25T03:40:47.910Z,100010.97
2023-01-25T03:43:14.862Z,100009.31
2023-01-25T03:45:41.654Z,100009.44
2023-01-25T03:48:08.220Z,100013.97
2023-01-25T03:50:34.851Z,100004.38
2023-01-25T03:53:07.062Z,100006.97
2023-01-25T03:55:34.544Z,99999.81
2023-01-25T03:58:01.318Z,100004.22
2023-01-25T04:00:27.948Z,100000.41
2023-01-25T04:02:54.515Z,99994.38
2023-01-25T04:05:21.173Z,99990.91
2023-01-25T04:07:47.732Z,99986.63
2023-01-25T04:10:14.332Z,99988.44
2023-01-25T04:12:41.017Z,99981.41
2023-01-25T04:15:08.628Z,99986.53
2023-01-25T04:17:35.352Z,99979.78
2023-01-25T04:20:02.009Z,99979.78
2023-01-25T04:22:28.584Z,99972.75
2023-01-25T04:24:58.301Z,99966.56
2023-01-25T04:27:28.212Z,99970.84
2023-01-25T04:29:54.771Z,99966.44
2023-01-25T04:32:21.440Z,99969.88
2023-01-25T04:34:48.050Z,99965.63
2023-01-25T04:37:14.639Z,99961.34
2023-01-25T04:39:41.256Z,99960.41
2023-01-25T04:42:07.803Z,99961.34
2023-01-25T04:44:34.364Z,99960.78
2023-01-25T04:47:01.008Z,99969.44
2023-01-25T04:49:27.571Z,99968.59
2023-01-25T04:51:54.201Z,99966.13
2023-01-25T04:54:20.785Z,99966.00
2023-01-25T04:56:47.318Z,99961.84
2023-01-25T04:59:13.904Z,99962.81
2023-01-25T05:01:40.505Z,99960.06
2023-01-25T05:04:07.318Z,99963.78
2023-01-25T05:06:33.948Z,99963.88
2023-01-25T05:09:00.783Z,99962.13
2023-01-25T05:11:27.436Z,99957.72
2023-01-25T05:13:54.905Z,99962.00
2023-01-25T05:16:21.713Z,99967.09
2023-01-25T05:18:49.393Z,99961.16
2023-01-25T05:21:31.427Z,99958.56
2023-01-25T05:23:58.564Z,99956.06
2023-01-25T05:26:40.476Z,99950.00
2023-01-25T05:29:07.115Z,99943.97
2023-01-25T05:31:33.782Z,99953.44
2023-01-25T05:34:00.376Z,99944.78
2023-01-25T05:36:27.161Z,99936.00
2023-01-25T05:38:53.742Z,99936.25
2023-01-25T05:41:20.373Z,99942.19
2023-01-25T05:43:52.244Z,99934.34
2023-01-25T05:46:18.878Z,99939.25
2023-01-25T05:48:47.824Z,99935.56
2023-01-25T05:51:14.424Z,99940.06
2023-01-25T05:53:40.995Z,99931.28
2023-01-25T05:56:10.362Z,99924.41
2023-01-25T05:58:37.998Z,99921.22
2023-01-25T06:01:06.765Z,99929.88
2023-01-25T06:03:34.083Z,99927.00
2023-01-25T06:06:02.969Z,99925.63
2023-01-25T06:08:31.742Z,99931.78
2023-01-25T06:10:58.888Z,99927.28
2023-01-25T06:13:25.652Z,99929.63
2023-01-25T06:15:54.836Z,99928.94
2023-01-25T06:18:22.492Z,99928.81
2023-01-25T06:20:49.078Z,99934.03
2023-01-25T06:23:15.631Z,99929.63
2023-01-25T06:25:42.455Z,99932.09
2023-01-25T06:28:09.164Z,99931.28
2023-01-25T06:30:35.983Z,99937.44
2023-01-25T06:33:02.798Z,99937.44
2023-01-25T06:35:32.239Z,99933.75
2023-01-25T06:37:59.900Z,99931.41
2023-01-25T06:40:28.034Z,99933.22
2023-01-25T06:42:55.002Z,99934.03
2023-01-25T06:45:21.549Z,99932.22
2023-01-25T06:47:49.648Z,99933.91
2023-01-25T06:50:16.348Z,99930.47
2023-01-25T06:52:42.917Z,99929.25
2023-01-25T06:55:13.822Z,99930.34
2023-01-25T06:57:40.417Z,99929.63
2023-01-25T07:00:07.832Z,99930.34
2023-01-25T07:02:34.485Z,99936.50
2023-01-25T07:05:01.066Z,99931.16
2023-01-25T07:07:27.687Z,99932.94
2023-01-25T07:09:54.307Z,99927.72
2023-01-25T07:12:22.235Z,99926.63
2023-01-25T07:14:49.574Z,99918.09
2023-01-25T07:17:16.159Z,99924.41
2023-01-25T07:19:42.763Z,99917.28
2023-01-25T07:22:09.350Z,99919.75
2023-01-25T07:24:36.020Z,99912.88
2023-01-25T07:27:02.640Z,99914.78
2023-01-25T07:29:29.888Z,99915.75
2023-01-25T07:31:56.545Z,99915.63
2023-01-25T07:34:23.295Z,99921.78
2023-01-25T07:36:49.857Z,99913.94
2023-01-25T07:39:17.247Z,99920.16
2023-01-25T07:41:43.837Z,99907.34
2023-01-25T07:44:10.461Z,99907.59
2023-01-25T07:46:37.165Z,99907.59
2023-01-25T07:49:03.712Z,99906.50
2023-01-25T07:51:31.129Z,99908.03
2023-01-25T07:53:59.991Z,99914.22
2023-01-25T07:56:29.103Z,99914.22
2023-01-25T07:58:57.440Z,99912.69
2023-01-25T08:01:26.588Z,99911.88
2023-01-25T08:03:55.695Z,99905.81
2023-01-25T08:06:27.491Z,99911.03
2023-01-25T08:08:55.301Z,99909.25
2023-01-25T08:11:24.686Z,99911.97
2023-01-25T08:13:51.577Z,99919.00
2023-01-25T08:16:20.764Z,99912.09
2023-01-25T08:18:49.917Z,99916.50
2023-01-25T08:21:16.526Z,99916.38
2023-01-25T08:23:43.080Z,99919.13
2023-01-25T08:26:15.491Z,99921.88
2023-01-25T08:28:45.469Z,99917.47
2023-01-25T08:31:16.896Z,99917.47
2023-01-25T08:33:46.024Z,99917.31
2023-01-25T08:36:14.266Z,99912.25
2023-01-25T08:38:41.442Z,99907.88
2023-01-25T08:41:10.667Z,99903.47
2023-01-25T08:43:37.739Z,99904.41
2023-01-25T08:46:05.111Z,99903.47
2023-01-25T08:48:31.716Z,99902.75
2023-01-25T08:50:59.018Z,99905.13
2023-01-25T08:53:28.197Z,99909.50
2023-01-25T08:55:54.863Z,99900.84
2023-01-25T08:58:22.535Z,99892.88
2023-01-25T09:00:49.777Z,99894.81
2023-01-25T09:03:18.181Z,99885.31
2023-01-25T09:05:44.922Z,99887.06
2023-01-25T09:08:11.628Z,99882.72
2023-01-25T09:10:38.302Z,99877.47
2023-01-25T09:13:07.561Z,99875.56
2023-01-25T09:15:34.967Z,99873.53
2023-01-25T09:18:01.621Z,99877.22
2023-01-25T09:20:29.460Z,99872.94
2023-01-25T09:22:59.555Z,99872.72
2023-01-25T09:25:26.192Z,99874.47
2023-01-25T09:27:52.761Z,99877.34
2023-01-25T09:30:19.717Z,99872.00
2023-01-25T09:32:50.048Z,99875.56
2023-01-25T09:35:17.210Z,99867.84
2023-01-25T09:37:43.736Z,99874.75
2023-01-25T09:40:21.021Z,99871.03
2023-01-25T09:43:00.700Z,99860.72
2023-01-25T09:45:36.752Z,99861.81
2023-01-25T09:48:13.607Z,99857.53
2023-01-25T09:50:50.204Z,99863.47
2023-01-25T09:53:16.748Z,99856.47
2023-01-25T09:55:44.492Z,99857.84
2023-01-25T09:58:19.788Z,99859.50
2023-01-25T10:00:48.201Z,99862.25
2023-01-25T10:03:32.342Z,99854.16
2023-01-25T10:06:01.848Z,99849.88
2023-01-25T10:08:33.539Z,99851.81
2023-01-25T10:11:08.841Z,99848.34
2023-01-25T10:13:35.443Z,99845.75
2023-01-25T10:16:14.636Z,99845.06
2023-01-25T10:18:45.394Z,99844.22
2023-01-25T10:21:20.881Z,99838.19
2023-01-25T10:24:02.831Z,99837.22
2023-01-25T10:26:34.355Z,99833.63
2023-01-25T10:29:22.924Z,99821.28
2023-01-25T10:31:53.627Z,99819.50
2023-01-25T10:34:26.049Z,99812.66
2023-01-25T10:36:56.498Z,99803.97
2023-01-25T10:39:23.818Z,99796.28
2023-01-25T10:41:59.318Z,99788.44
2023-01-25T10:44:26.293Z,99791.06
2023-01-25T10:47:08.198Z,99788.44
2023-01-25T10:49:35.750Z,99785.16
2023-01-25T10:52:19.254Z,99777.19
2023-01-25T10:54:47.118Z,99772.09
2023-01-25T10:57:18.814Z,99766.88
2023-01-25T10:59:49.180Z,99760.13
2023-01-25T11:02:46.253Z,99761.38
2023-01-25T11:05:25.926Z,99756.72
2023-01-25T11:07:52.905Z,99753.13
2023-01-25T11:10:37.295Z,99744.50
2023-01-25T11:13:20.897Z,99750.66
2023-01-25T11:15:52.181Z,99740.06
2023-01-25T11:18:25.690Z,99730.47
2023-01-25T11:21:12.342Z,99722.78
2023-01-25T11:23:38.953Z,99721.00
2023-01-25T11:26:15.099Z,99713.16
2023-01-25T11:28:42.254Z,99706.97
2023-01-25T11:31:13.215Z,99699.81
2023-01-25T11:33:40.720Z,99700.81
2023-01-25T11:36:31.642Z,99694.16
2023-01-25T11:39:14.462Z,99683.47
2023-01-25T11:42:06.960Z,99677.97
2023-01-25T11:44:43.441Z,99668.47
2023-01-25T11:47:25.171Z,99670.56
2023-01-25T11:49:59.755Z,99663.97
2023-01-25T11:52:43.734Z,99658.75
2023-01-25T11:55:26.508Z,99660.81
2023-01-25T11:58:08.259Z,99651.34
2023-01-25T12:01:01.733Z,99650.38
2023-01-25T12:03:43.643Z,99647.63
2023-01-25T12:06:15.982Z,99647.63
2023-01-25T12:08:52.541Z,99643.50
2023-01-25T12:11:43.489Z,99641.03
2023-01-25T12:14:25.284Z,99639.22
2023-01-25T12:17:08.551Z,99635.91
2023-01-25T12:19:45.491Z,99628.09
2023-01-25T12:22:24.372Z,99623.56
2023-01-25T12:25:21.833Z,99623.84
2023-01-25T12:28:06.032Z,99612.31
2023-01-25T12:30:43.595Z,99600.34
2023-01-25T12:33:28.580Z,99597.31
2023-01-25T12:36:01.587Z,99589.47
2023-01-25T12:38:44.616Z,99579.72
2023-01-25T12:41:30.178Z,99593.19
2023-01-25T12:44:15.849Z,99581.78
2023-01-25T12:46:50.864Z,99580.13
2023-01-25T12:49:28.506Z,99571.19
2023-01-25T12:51:59.040Z,99565.81
2023-01-25T12:54:32.921Z,99563.22
2023-01-25T12:57:25.505Z,99561.59
2023-01-25T12:59:59.433Z,99551.13
2023-01-25T13:02:42.406Z,99550.28
2023-01-25T13:05:29.439Z,99546.59
2023-01-25T13:08:03.075Z,99543.84
2023-01-25T13:10:39.320Z,99541.22
2023-01-25T13:13:21.308Z,99539.97
2023-01-25T13:15:48.618Z,99537.25
2023-01-25T13:18:32.558Z,99538.88
2023-01-25T13:21:03.902Z,99538.88
2023-01-25T13:23:31.350Z,99533.78
2023-01-25T13:26:28.475Z,99543.44
2023-01-25T13:28:57.958Z,99537.38
2023-01-25T13:31:53.349Z,99524.19
2023-01-25T13:34:36.577Z,99528.28
2023-01-25T13:37:18.204Z,99522.25
2023-01-25T13:39:49.655Z,99514.41
2023-01-25T13:42:23.570Z,99516.34
2023-01-25T13:44:54.570Z,99522.25
2023-01-25T13:47:24.359Z,99524.84
2023-01-25T13:50:04.268Z,99510.84
2023-01-25T13:52:32.340Z,99512.63
2023-01-25T13:55:00.058Z,99515.38
2023-01-25T13:57:31.860Z,99503.69
2023-01-25T14:00:10.575Z,99504.91
2023-01-25T14:02:40.396Z,99506.44
2023-01-25T14:05:17.974Z,99500.25
2023-01-25T14:07:47.550Z,99503.56
2023-01-25T14:10:23.360Z,99495.03
2023-01-25T14:12:51.910Z,99496.81
2023-01-25T14:15:23.301Z,99492.28
2023-01-25T14:18:14.337Z,99490.75
2023-01-25T14:20:41.818Z,99490.63
2023-01-25T14:23:28.067Z,99492.28
2023-01-25T14:25:58.635Z,99479.22
2023-01-25T14:28:27.086Z,99483.47
2023-01-25T14:30:56.840Z,99483.47
2023-01-25T14:33:29.763Z,99477.44
2023-01-25T14:36:16.379Z,99473.03
2023-01-25T14:38:50.876Z,99472.88
2023-01-25T14:41:22.546Z,99476.34
2023-01-25T14:43:51.959Z,99467.00
2023-01-25T14:46:34.744Z,99473.16
2023-01-25T14:49:25.651Z,99460.13
2023-01-25T14:52:05.879Z,99461.06
2023-01-25T14:54:44.580Z,99466.84
2023-01-25T14:57:40.701Z,99455.44
2023-01-25T15:00:19.712Z,99452.13
2023-01-25T15:02:49.851Z,99452.13
2023-01-25T15:05:20.331Z,99456.25
2023-01-25T15:07:49.085Z,99456.09
2023-01-25T15:10:17.720Z,99448.56
2023-01-25T15:13:07.635Z,99445.25
2023-01-25T15:15:55.319Z,99444.28
2023-01-25T15:18:46.270Z,99446.91
2023-01-25T15:21:19.584Z,99437.00
2023-01-25T15:23:48.352Z,99435.09
2023-01-25T15:26:20.976Z,99425.31
2023-01-25T15:28:48.761Z,99427.81
2023-01-25T15:31:20.972Z,99420.78
2023-01-25T15:33:47.779Z,99426.81
2023-01-25T15:36:15.067Z,99414.88
2023-01-25T15:38:42.141Z,99413.91
2023-01-25T15:41:09.549Z,99413.63
2023-01-25T15:43:36.162Z,99404.00
2023-01-25T15:46:05.614Z,99407.56
2023-01-25T15:48:36.602Z,99408.41
2023-01-25T15:51:03.707Z,99398.94
2023-01-25T15:53:30.385Z,99403.19
2023-01-25T15:56:02.014Z,99400.03
2023-01-25T15:58:36.485Z,99404.31
2023-01-25T16:01:03.646Z,99403.19
2023-01-25T16:03:32.437Z,99398.94
2023-01-25T16:06:05.881Z,99394.66
2023-01-25T16:08:33.558Z,99394.66
2023-01-25T16:11:00.369Z,99394.66
2023-01-25T16:13:26.937Z,99389.44
2023-01-25T16:15:56.738Z,99383.41
2023-01-25T16:18:23.325Z,99379.13
2023-01-25T16:20:50.203Z,99385.88
2023-01-25T16:23:16.840Z,99390.25
2023-01-25T16:25:47.440Z,99378.53
2023-01-25T16:28:19.229Z,99382.28
2023-01-25T16:30:49.840Z,99382.84
2023-01-25T16:33:16.510Z,99373.22
2023-01-25T16:35:43.087Z,99373.06
2023-01-25T16:38:11.646Z,99368.38
2023-01-25T16:40:39.717Z,99366.63
2023-01-25T16:43:06.567Z,99363.03
2023-01-25T16:45:33.321Z,99369.22
2023-01-25T16:48:01.940Z,99367.13
2023-01-25T16:50:28.697Z,99362.88
2023-01-25T16:52:56.211Z,99360.41
2023-01-25T16:55:22.794Z,99359.16
2023-01-25T16:57:51.303Z,99357.22
2023-01-25T17:00:18.253Z,99347.59
2023-01-25T17:02:58.272Z,99349.38
2023-01-25T17:05:33.586Z,99346.78
2023-01-25T17:08:00.415Z,99343.34
2023-01-25T17:10:27.116Z,99343.34
2023-01-25T17:12:53.744Z,99339.91
2023-01-25T17:15:20.559Z,99339.75
2023-01-25T17:17:47.172Z,99336.03
2023-01-25T17:20:13.791Z,99331.66
2023-01-25T17:22:41.973Z,99332.47
2023-01-25T17:25:08.660Z,99337.69
2023-01-25T17:27:35.296Z,99332.47
2023-01-25T17:30:02.059Z,99337.84
2023-01-25T17:32:28.808Z,99333.56
2023-01-25T17:34:59.017Z,99325.06
2023-01-25T17:37:25.918Z,99322.31
2023-01-25T17:39:52.828Z,99313.63
2023-01-25T17:42:19.529Z,99312.50
2023-01-25T17:44:46.112Z,99307.28
2023-01-25T17:47:12.719Z,99298.63
2023-01-25T17:49:39.282Z,99295.34
2023-01-25T17:52:06.146Z,99294.22
2023-01-25T17:54:32.803Z,99296.69
2023-01-25T17:56:59.697Z,99292.31
2023-01-25T17:59:26.320Z,99289.69
2023-01-25T18:01:53.002Z,99287.06
2023-01-25T18:04:20.729Z,99282.66
2023-01-25T18:06:47.354Z,99273.31
2023-01-25T18:09:14.324Z,99274.00
2023-01-25T18:11:41.110Z,99279.25
2023-01-25T18:14:12.048Z,99273.31
2023-01-25T18:16:40.170Z,99267.81
2023-01-25T18:19:07.850Z,99266.84
2023-01-25T18:21:35.213Z,99265.88
2023-01-25T18:24:07.850Z,99265.22
2023-01-25T18:26:37.178Z,99261.34
2023-01-25T18:29:34.073Z,99255.97
2023-01-25T18:32:00.824Z,99260.38
2023-01-25T18:34:27.489Z,99246.09
2023-01-25T18:36:59.282Z,99252.44
2023-01-25T18:39:26.578Z,99248.69
2023-01-25T18:41:53.204Z,99239.59
2023-01-25T18:44:19.922Z,99237.59
2023-01-25T18:46:48.000Z,99238.94
2023-01-25T18:49:14.688Z,99241.69
2023-01-25T18:52:01.808Z,99238.72
2023-01-25T18:54:28.077Z,99235.41
2023-01-25T18:56:55.523Z,99232.63
2023-01-25T18:59:22.129Z,99229.22
2023-01-25T19:01:48.816Z,99219.19
2023-01-25T19:04:15.678Z,99213.00
2023-01-25T19:06:42.274Z,99210.94
2023-01-25T19:09:08.918Z,99202.56
2023-01-25T19:11:35.528Z,99211.66
2023-01-25T19:14:02.180Z,99204.94
2023-01-25T19:16:28.804Z,99199.56
2023-01-25T19:18:55.381Z,99195.03
2023-01-25T19:21:24.898Z,99189.81
2023-01-25T19:23:52.962Z,99184.03
2023-01-25T19:26:21.890Z,99184.03
2023-01-25T19:28:48.967Z,99180.63
2023-01-25T19:31:18.913Z,99180.63
2023-01-25T19:33:46.396Z,99174.72
2023-01-25T19:36:16.746Z,99175.84
2023-01-25T19:38:43.795Z,99170.34
2023-01-25T19:41:13.686Z,99165.75
2023-01-25T19:43:42.766Z,99162.34
2023-01-25T19:46:12.645Z,99152.69
2023-01-25T19:48:41.076Z,99150.78
2023-01-25T19:51:18.575Z,99149.44
2023-01-25T19:53:47.494Z,99144.22
2023-01-25T19:56:16.187Z,99145.56
2023-01-25T19:58:43.731Z,99148.16
2023-01-25T20:01:13.920Z,99143.59
2023-01-25T20:03:41.805Z,99138.69
2023-01-25T20:06:09.750Z,99137.72
2023-01-25T20:08:38.740Z,99138.38
2023-01-25T20:11:11.067Z,99128.59
2023-01-25T20:13:38.223Z,99128.75
2023-01-25T20:16:05.404Z,99134.78
2023-01-25T20:18:32.403Z,99135.09
2023-01-25T20:21:01.369Z,99118.31
2023-01-25T20:23:32.456Z,99126.16
2023-01-25T20:26:01.940Z,99117.47
2023-01-25T20:28:32.077Z,99117.09
2023-01-25T20:31:04.266Z,99114.44
2023-01-25T20:33:32.775Z,99105.75
2023-01-25T20:36:01.431Z,99115.97
2023-01-25T20:38:32.822Z,99106.53
2023-01-25T20:41:01.040Z,99099.81
2023-01-25T20:43:29.562Z,99094.22
2023-01-25T20:45:56.657Z,99095.97
2023-01-25T20:48:24.182Z,99087.78
2023-01-25T20:50:50.791Z,99088.47
2023-01-25T20:53:18.040Z,99090.25
2023-01-25T20:55:45.279Z,99084.34
2023-01-25T20:58:12.077Z,99077.84
2023-01-25T21:00:38.827Z,99073.91
2023-01-25T21:03:05.472Z,99070.19
2023-01-25T21:05:32.073Z,99068.69
2023-01-25T21:07:58.626Z,99069.97
2023-01-25T21:10:25.275Z,99065.84
2023-01-25T21:12:51.854Z,99062.81
2023-01-25T21:15:18.540Z,99058.25
2023-01-25T21:17:45.134Z,99059.81
2023-01-25T21:20:11.861Z,99055.72
2023-01-25T21:22:38.477Z,99053.91
2023-01-25T21:25:05.277Z,99064.66
2023-01-25T21:27:31.871Z,99059.66
2023-01-25T21:29:58.517Z,99056.69
2023-01-25T21:32:25.587Z,99060.78
2023-01-25T21:34:52.265Z,99065.16
2023-01-25T21:37:18.878Z,99053.25
2023-01-25T21:39:45.468Z,99050.66
2023-01-25T21:42:12.011Z,99061.75
2023-01-25T21:44:53.835Z,99042.66
2023-01-25T21:47:29.876Z,99046.88
2023-01-25T21:50:17.116Z,99044.28
2023-01-25T21:52:43.686Z,99037.13
2023-01-25T21:55:10.302Z,99036.97
2023-01-25T21:57:36.883Z,99036.16
2023-01-25T22:00:05.452Z,99028.78
2023-01-25T22:02:32.495Z,99025.88
2023-01-25T22:04:59.038Z,99028.13
2023-01-25T22:07:25.672Z,99029.59
2023-01-25T22:09:52.232Z,99019.59
2023-01-25T22:12:18.945Z,99026.47
2023-01-25T22:14:45.533Z,99020.28
2023-01-25T22:17:12.122Z,99026.16
2023-01-25T22:19:38.734Z,99017.00
2023-01-25T22:22:05.327Z,99019.59
2023-01-25T22:24:31.893Z,99008.78
2023-01-25T22:27:16.612Z,99010.38
2023-01-25T22:29:43.217Z,99008.06
2023-01-25T22:32:09.770Z,99006.69
2023-01-25T22:34:36.439Z,99004.25
2023-01-25T22:37:02.997Z,99003.28
2023-01-25T22:39:29.587Z,98985.81
2023-01-25T22:41:56.526Z,98990.06
2023-01-25T22:44:23.101Z,98992.69
2023-01-25T22:46:50.662Z,98987.78
2023-01-25T22:49:17.337Z,98987.09
2023-01-25T22:51:43.950Z,98982.03
2023-01-25T22:54:10.531Z,98979.56
2023-01-25T22:56:37.115Z,98968.97
2023-01-25T22:59:03.705Z,98969.81
2023-01-25T23:01:33.216Z,98970.09
2023-01-25T23:04:00.714Z,98966.84
2023-01-25T23:06:30.409Z,98967.13
2023-01-25T23:09:00.042Z,98964.22
2023-01-25T23:11:32.314Z,98963.09
2023-01-25T23:14:15.194Z,98961.63
2023-01-25T23:16:42.688Z,98949.22
2023-01-25T23:19:10.038Z,98943.34
2023-01-25T23:21:36.634Z,98950.06
2023-01-25T23:24:03.920Z,98942.97
2023-01-25T23:26:37.573Z,98944.31
2023-01-25T23:29:07.594Z,98938.88
2023-01-25T23:31:34.374Z,98944.63
2023-01-25T23:34:03.625Z,98940.94
2023-01-25T23:36:32.609Z,98942.59
2023-01-25T23:38:59.602Z,98935.31
2023-01-25T23:41:28.574Z,98930.22
2023-01-25T23:43:55.980Z,98924.34
2023-01-25T23:46:23.478Z,98912.31
2023-01-25T23:48:50.842Z,98920.47
2023-01-25T23:51:18.229Z,98914.28
2023-01-25T23:53:45.068Z,98912.31
2023-01-25T23:56:16.878Z,98906.59
2023-01-25T23:58:44.333Z,98900.41
